Latest Weather Observations for Hunters Hill

IDV60801

Issued at 8:35 pm EDT Wednesday 22 October 2014 (issued every 30 minutes, with the page automatically refreshed every 10 minutes)

About weather observations | Map of weather stations | Latest weather observations for VIC | Other Formats
Station Details ID: 082139 Name: HUNTERS HILL Lat: -36.21 Lon: 147.54 Height: 981.0 m
Data from the previous 72 hours. | See also: Recent months at Hunters Hill
Date/Time
EDT
Temp
°C
App
Temp
°C
Dew
Point
Rel
Hum
%
Delta-T
°C
Wind Press
QNH
hPa
Press
MSL
hPa
Rain
since 9 am
mm
Dir
 
Spd
km/h
Gust
km/h
Spd
kts
Gust
kts
22/08:30pm 18.3 18.0 11.6 65 3.8 WNW 4 6 2 3 - - 0.0
22/08:00pm 18.3 17.8 10.9 62 4.2 WNW 4 6 2 3 - - 0.0
22/07:30pm 18.6 18.1 10.9 61 4.4 WNW 4 6 2 3 - - 0.0
22/07:00pm 20.0 19.4 10.4 54 5.4 WNW 4 6 2 3 - - 0.0
22/06:30pm 21.0 20.2 9.6 48 6.4 WNW 4 7 2 4 - - 0.0
22/06:00pm 21.1 19.7 8.7 45 6.9 WNW 6 9 3 5 - - 0.0
22/05:30pm 22.4 20.6 7.8 39 8.0 WNW 7 13 4 7 - - 0.0
22/05:00pm 22.6 21.2 8.7 41 7.8 NW 6 13 3 7 - - 0.0
22/04:30pm 21.9 19.8 6.6 37 8.2 NW 7 15 4 8 - - 0.0
22/04:00pm 22.1 20.4 8.2 41 7.7 NNW 7 11 4 6 - - 0.0
22/03:30pm 22.7 21.7 10.2 45 7.2 WNW 6 13 3 7 - - 0.0
22/03:00pm 21.7 20.5 9.6 46 6.8 NW 6 15 3 8 - - 0.0
22/02:30pm 22.2 21.0 10.4 47 6.8 N 7 11 4 6 - - 0.0
22/02:00pm 22.0 22.0 11.1 50 6.3 W 2 7 1 4 - - 0.0
22/01:30pm 21.8 21.2 11.8 53 5.9 WNW 6 9 3 5 - - 0.0
22/01:00pm 21.1 20.4 10.0 49 6.3 WNW 4 9 2 5 - - 0.0
22/12:30pm 20.1 19.1 10.2 53 5.6 WNW 6 9 3 5 - - 0.0
22/12:00pm 19.6 18.8 9.8 53 5.5 WNW 4 7 2 4 - - 0.0
22/11:30am 18.8 17.5 10.1 57 4.9 N 7 15 4 8 - - 0.0
22/11:00am 18.9 18.7 11.7 63 4.2 NNW 4 7 2 4 - - 0.0
22/10:30am 18.3 17.7 11.8 66 3.7 NNW 6 11 3 6 - - 0.0
22/10:00am 16.8 16.3 10.6 67 3.5 NNW 4 7 2 4 - - 0.0
22/09:30am 16.3 15.8 10.6 69 3.2 NNW 4 7 2 4 - - 0.0
22/09:00am 15.6 14.9 10.2 70 3.0 NNW 4 7 2 4 - - 0.0
22/08:30am 14.2 13.4 9.6 74 2.5 NNW 4 7 2 4 - - 0.0
22/08:00am 13.5 13.0 10.7 83 1.5 NNW 4 7 2 4 - - 0.0
22/07:30am 13.4 12.8 10.4 82 1.6 NNW 4 7 2 4 - - 0.0
22/07:00am 12.7 12.4 10.1 84 1.4 NNW 2 6 1 3 - - 0.0
22/06:30am 11.8 11.9 10.0 89 1.0 CALM 0 0 0 0 - - 0.0
22/06:00am 11.5 11.6 10.1 91 0.8 NNW 0 2 0 1 - - 0.0
22/05:30am 11.3 11.0 10.0 92 0.7 NNW 2 4 1 2 - - 0.0
22/05:00am 11.1 10.4 9.9 92 0.6 NNW 4 6 2 3 - - 0.0
22/04:30am 11.1 10.4 9.9 92 0.6 NNW 4 6 2 3 - - 0.0
22/04:00am 11.2 10.1 10.1 93 0.6 NNW 6 6 3 3 - - 0.0
22/03:30am 11.3 10.2 10.0 92 0.7 NNW 6 7 3 4 - - 0.0
22/03:00am 11.3 10.2 10.0 92 0.7 NNW 6 7 3 4 - - 0.0
22/02:30am 11.5 10.4 9.8 89 0.9 NNW 6 7 3 4 - - 0.0
22/02:00am 11.9 11.1 9.5 85 1.3 NNW 4 6 2 3 - - 0.0
22/01:30am 12.5 11.8 9.9 84 1.4 NNW 4 6 2 3 - - 0.0
22/01:00am 12.7 11.8 9.2 79 1.9 NNW 4 6 2 3 - - 0.0
22/12:30am 13.3 12.4 9.2 76 2.2 NNW 4 4 2 2 - - 0.0
22/12:00am 13.9 12.6 9.3 74 2.5 NNW 6 9 3 5 - - 0.0
 
Date/Time
EDT
Temp
°C
App
Temp
°C
Dew
Point
Rel
Hum
%
Delta-T
°C
Wind Press
QNH
hPa
Press
MSL
hPa
Rain
since 9 am
mm
Dir
 
Spd
km/h
Gust
km/h
Spd
kts
Gust
kts
21/11:30pm 13.8 12.5 9.3 74 2.4 NNW 6 9 3 5 - - 0.0
21/11:00pm 13.3 12.1 9.5 78 2.0 NNW 6 9 3 5 - - 0.0
21/10:30pm 13.6 12.2 9.5 76 2.2 N 7 17 4 9 - - 0.0
21/10:00pm 14.1 12.6 9.3 73 2.6 N 7 15 4 8 - - 0.0
21/09:30pm 14.1 12.6 9.1 72 2.7 N 7 13 4 7 - - 0.0
21/09:00pm 14.7 13.6 9.9 73 2.6 NW 6 9 3 5 - - 0.0
21/08:30pm 15.2 14.0 9.6 69 3.1 WNW 6 11 3 6 - - 0.0
21/08:00pm 15.3 14.3 10.3 72 2.8 WNW 6 9 3 5 - - 0.0
21/07:30pm 16.1 15.1 10.2 68 3.3 WNW 6 11 3 6 - - 0.0
21/07:00pm 17.7 16.6 10.1 61 4.2 WNW 6 7 3 4 - - 0.0
21/06:30pm 18.7 17.7 10.3 58 4.7 NW 6 11 3 6 - - 0.0
21/06:00pm 19.5 18.2 10.0 54 5.3 WNW 7 13 4 7 - - 0.0
21/05:30pm 20.2 19.1 10.0 52 5.7 WNW 6 9 3 5 - - 0.0
21/05:00pm 20.1 19.1 10.2 53 5.6 NNW 6 15 3 8 - - 0.0
21/04:30pm 19.4 18.3 9.9 54 5.3 NNW 6 13 3 7 - - 0.0
21/04:00pm 19.6 18.1 9.2 51 5.8 WNW 7 15 4 8 - - 0.0
21/03:30pm 19.9 18.3 8.6 48 6.2 WNW 7 17 4 9 - - 0.0
21/03:00pm 20.0 18.5 8.4 47 6.3 NW 6 17 3 9 - - 0.0
21/02:30pm 19.9 18.8 8.3 47 6.3 WNW 4 11 2 6 - - 0.0
21/02:00pm 19.7 18.3 8.7 49 6.0 NNE 6 9 3 5 - - 0.0
21/01:30pm 19.4 18.2 9.6 53 5.5 NNW 6 11 3 6 - - 0.0
21/01:00pm 18.3 17.4 9.1 55 5.1 W 4 9 2 5 - - 0.0
21/12:30pm 17.7 16.6 8.3 54 5.1 NW 4 9 2 5 - - 0.0
21/12:00pm 18.2 17.6 10.3 60 4.4 ENE 4 7 2 4 - - 0.0
21/11:30am 16.4 15.3 8.6 60 4.2 NNE 4 7 2 4 - - 0.0
21/11:00am 16.1 15.0 9.8 66 3.5 NNE 6 11 3 6 - - 0.0
21/10:30am 15.5 14.5 9.0 65 3.5 NNE 4 7 2 4 - - 0.0
21/10:00am 14.2 12.8 7.3 63 3.6 E 4 9 2 5 - - 0.0
21/09:30am 12.4 10.9 6.9 69 2.8 SSE 4 9 2 5 - - 0.0
21/09:00am 11.4 10.0 7.3 76 2.1 SSE 4 11 2 6 - - 0.0
21/08:30am 9.9 8.2 7.5 85 1.2 ESE 6 11 3 6 - - 0.0
21/08:00am 9.2 7.7 7.0 86 1.1 ENE 4 9 2 5 - - 0.0
21/07:30am 8.7 6.9 7.3 91 0.7 ENE 6 7 3 4 - - 0.0
21/07:00am 8.0 6.3 7.6 97 0.2 ENE 6 7 3 4 - - 0.0
21/06:30am 7.7 5.9 7.3 97 0.2 ENE 6 9 3 5 - - 0.0
21/06:00am 7.9 6.1 7.3 96 0.3 ENE 6 7 3 4 - - 0.0
21/05:30am 8.2 6.4 7.1 93 0.5 ENE 6 7 3 4 - - 0.0
21/05:00am 8.8 7.0 7.1 89 0.8 ENE 6 7 3 4 - - 0.0
21/04:30am 9.1 8.0 6.9 86 1.1 ENE 2 4 1 2 - - 0.0
21/04:00am 9.4 8.3 7.0 85 1.2 ENE 2 4 1 2 - - 0.0
21/03:30am 9.6 7.8 7.0 84 1.3 ENE 6 7 3 4 - - 0.0
21/03:00am 9.7 7.9 7.1 84 1.3 ENE 6 7 3 4 - - 0.0
21/02:30am 9.9 8.1 7.3 84 1.3 ENE 6 7 3 4 - - 0.0
21/02:00am 10.0 8.3 7.6 85 1.2 ENE 6 7 3 4 - - 0.0
21/01:30am 10.2 8.5 7.6 84 1.3 ENE 6 7 3 4 - - 0.0
21/01:00am 10.5 8.6 7.7 83 1.4 ENE 7 9 4 5 - - 0.0
21/12:30am 10.8 9.2 7.9 82 1.5 ENE 6 7 3 4 - - 0.0
21/12:00am 11.0 9.4 7.9 81 1.6 ENE 6 7 3 4 - - 0.0
 
Date/Time
EDT
Temp
°C
App
Temp
°C
Dew
Point
Rel
Hum
%
Delta-T
°C
Wind Press
QNH
hPa
Press
MSL
hPa
Rain
since 9 am
mm
Dir
 
Spd
km/h
Gust
km/h
Spd
kts
Gust
kts
20/11:30pm 11.3 10.1 8.0 80 1.7 ENE 4 6 2 3 - - 0.0
20/11:00pm 11.6 10.0 7.9 78 1.9 ENE 6 7 3 4 - - 0.0
20/10:30pm 12.1 10.5 8.0 76 2.1 ENE 6 9 3 5 - - 0.0
20/10:00pm 12.8 11.0 8.1 73 2.4 WSW 7 11 4 6 - - 0.0
20/09:30pm 13.6 12.0 7.8 68 3.0 WSW 6 9 3 5 - - 0.0
20/09:00pm 14.3 12.2 6.6 60 3.9 WSW 7 9 4 5 - - 0.0
20/08:30pm 16.0 14.0 4.4 46 5.7 WSW 4 7 2 4 - - 0.0
20/08:00pm 16.7 14.5 3.1 40 6.6 WSW 4 7 2 4 - - 0.0
20/07:30pm 16.9 15.7 6.4 50 5.4 WSW 2 6 1 3 - - 0.0
20/07:00pm 18.5 17.6 7.6 49 5.8 WSW 2 4 1 2 - - 0.0
20/06:30pm 20.1 18.6 6.8 42 7.1 WSW 4 6 2 3 - - 0.0
20/06:00pm 21.7 20.7 7.5 40 7.7 W 2 6 1 3 - - 0.0
20/05:30pm 21.9 19.9 6.2 36 8.3 W 6 11 3 6 - - 0.0
20/05:00pm 22.0 20.0 6.3 36 8.4 W 6 7 3 4 - - 0.0
20/04:30pm 22.4 20.8 8.1 40 7.9 NNW 6 15 3 8 - - 0.0
20/04:00pm 22.2 20.3 6.8 37 8.3 NW 6 11 3 6 - - 0.0
20/03:30pm 22.1 19.8 5.5 34 8.7 WNW 7 15 4 8 - - 0.0
20/03:00pm 21.7 18.6 3.4 30 9.2 WNW 9 15 5 8 - - 0.0
20/02:30pm 21.9 18.7 4.9 33 8.8 WNW 11 20 6 11 - - 0.0
20/02:00pm 21.8 19.5 5.7 35 8.5 NW 7 15 4 8 - - 0.0
20/01:30pm 21.9 20.1 7.0 38 8.0 NNW 6 15 3 8 - - 0.0
20/01:00pm 20.8 20.2 9.1 47 6.5 ESE 2 6 1 3 - - 0.0
20/12:30pm 19.3 18.0 7.7 47 6.2 ESE 4 7 2 4 - - 0.0
20/12:00pm 19.6 18.7 9.2 51 5.8 ESE 4 7 2 4 - - 0.0
20/11:30am 18.5 17.4 8.5 52 5.4 ESE 4 7 2 4 - - 0.0
20/11:00am 18.1 16.5 7.8 51 5.5 ESE 6 7 3 4 - - 0.0
20/10:30am 17.5 16.1 8.9 57 4.7 ESE 6 9 3 5 - - 0.0
20/10:00am 16.4 14.8 8.1 58 4.4 SSE 6 9 3 5 - - 0.0
20/09:30am 15.9 14.2 7.7 58 4.3 SE 6 7 3 4 - - 0.0
20/09:00am 14.4 13.0 7.2 62 3.7 SE 4 7 2 4 - - 0.0
20/08:30am 12.1 10.9 8.2 77 2.0 SE 4 7 2 4 - - 0.0
20/08:00am 11.4 10.1 7.7 78 1.9 SE 4 7 2 4 - - 0.0
20/07:30am 11.1 9.3 7.2 77 2.0 SE 6 7 3 4 - - 0.0
20/07:00am 10.3 8.5 7.0 80 1.7 SE 6 9 3 5 - - 0.0
20/06:30am 10.3 8.4 6.8 79 1.7 SSE 6 9 3 5 - - 0.0
20/06:00am 11.2 9.5 6.1 71 2.5 SSE 4 9 2 5 - - 0.0
20/05:30am 12.0 9.9 6.7 70 2.7 SSE 7 11 4 6 - - 0.0
20/05:00am 12.8 10.8 6.4 65 3.2 S 6 9 3 5 - - 0.0
20/04:30am 14.2 12.7 6.6 60 3.9 NNE 4 7 2 4 - - 0.0
20/04:00am 14.9 13.4 6.7 58 4.2 NNE 4 4 2 2 - - 0.0
20/03:30am 14.4 13.4 7.2 62 3.7 NNE 2 4 1 2 - - 0.0
20/03:00am 15.5 13.4 5.7 52 5.0 NNE 6 9 3 5 - - 0.0
20/02:30am 15.9 14.1 5.5 50 5.2 NNE 4 9 2 5 - - 0.0
20/02:00am 15.8 13.7 5.7 51 5.1 NNE 6 9 3 5 - - 0.0
20/01:30am 16.2 13.9 5.8 50 5.3 NNE 7 11 4 6 - - 0.0
20/01:00am 16.3 14.2 5.6 49 5.4 NNE 6 7 3 4 - - 0.0
20/12:30am 16.1 14.0 6.0 51 5.2 NNE 6 9 3 5 - - 0.0
20/12:00am 15.8 14.2 6.5 54 4.8 NNE 4 7 2 4 - - 0.0
 
Date/Time
EDT
Temp
°C
App
Temp
°C
Dew
Point
Rel
Hum
%
Delta-T
°C
Wind Press
QNH
hPa
Press
MSL
hPa
Rain
since 9 am
mm
Dir
 
Spd
km/h
Gust
km/h
Spd
kts
Gust
kts
19/11:30pm 15.9 14.0 6.6 54 4.8 NNE 6 9 3 5 - - 0.0
19/11:00pm 15.9 14.4 6.9 55 4.7 WNW 4 7 2 4 - - 0.0
19/10:30pm 15.8 14.5 7.8 59 4.2 WNW 4 6 2 3 - - 0.0
19/10:00pm 15.8 14.2 7.8 59 4.2 WNW 6 7 3 4 - - 0.0
19/09:30pm 15.9 14.4 6.9 55 4.7 WNW 4 6 2 3 - - 0.0
19/09:00pm 16.1 15.2 7.8 58 4.4 WNW 2 4 1 2 - - 0.0

Other Formats:

Comma delimited format used in spreadsheet applications
http://www.bom.gov.au/fwo/IDV60801/IDV60801.94878.axf

JavaScript Object Notation format (JSON) in row-major order
http://www.bom.gov.au/fwo/IDV60801/IDV60801.94878.json